sensor_id;sensor_type;location;lat;lon;timestamp;P1;durP1;ratioP1;P2;durP2;ratioP2
20772;SDS011;10546;50.674;4.616;2023-04-16T07:54:02;18.97;;;9.67;;
20772;SDS011;10546;50.674;4.616;2023-04-16T07:56:27;19.03;;;9.40;;
20772;SDS011;10546;50.674;4.616;2023-04-16T07:58:53;16.83;;;9.57;;
20772;SDS011;10546;50.674;4.616;2023-04-16T08:01:19;20.47;;;10.47;;
20772;SDS011;10546;50.674;4.616;2023-04-16T08:03:45;20.73;;;10.30;;
20772;SDS011;10546;50.674;4.616;2023-04-16T08:06:10;19.73;;;10.47;;
20772;SDS011;10546;50.674;4.616;2023-04-16T08:08:36;20.00;;;11.93;;
20772;SDS011;10546;50.674;4.616;2023-04-16T08:11:01;21.70;;;11.80;;
20772;SDS011;10546;50.674;4.616;2023-04-16T08:13:27;22.67;;;11.87;;
20772;SDS011;10546;50.674;4.616;2023-04-16T08:15:53;23.83;;;12.03;;
20772;SDS011;10546;50.674;4.616;2023-04-16T08:18:18;25.67;;;12.87;;
20772;SDS011;10546;50.674;4.616;2023-04-16T08:20:44;26.20;;;13.17;;
20772;SDS011;10546;50.674;4.616;2023-04-16T08:23:10;21.83;;;11.73;;
20772;SDS011;10546;50.674;4.616;2023-04-16T08:25:35;28.20;;;13.57;;
20772;SDS011;10546;50.674;4.616;2023-04-16T08:28:01;20.47;;;12.40;;
20772;SDS011;10546;50.674;4.616;2023-04-16T08:30:26;32.60;;;14.60;;
20772;SDS011;10546;50.674;4.616;2023-04-16T08:32:52;30.27;;;15.20;;
20772;SDS011;10546;50.674;4.616;2023-04-16T08:35:18;26.53;;;13.87;;
20772;SDS011;10546;50.674;4.616;2023-04-16T08:37:44;27.40;;;14.83;;
20772;SDS011;10546;50.674;4.616;2023-04-16T08:40:10;39.00;;;16.13;;
20772;SDS011;10546;50.674;4.616;2023-04-16T08:42:47;30.37;;;16.03;;
20772;SDS011;10546;50.674;4.616;2023-04-16T08:45:22;29.47;;;15.57;;
20772;SDS011;10546;50.674;4.616;2023-04-16T08:47:50;33.63;;;16.83;;
20772;SDS011;10546;50.674;4.616;2023-04-16T08:50:18;30.60;;;14.73;;
20772;SDS011;10546;50.674;4.616;2023-04-16T08:55:37;45.90;;;16.50;;
20772;SDS011;10546;50.674;4.616;2023-04-16T08:58:10;36.00;;;16.63;;
20772;SDS011;10546;50.674;4.616;2023-04-16T09:00:43;40.20;;;16.53;;
20772;SDS011;10546;50.674;4.616;2023-04-16T09:03:10;37.07;;;17.27;;
20772;SDS011;10546;50.674;4.616;2023-04-16T09:05:36;37.20;;;17.13;;
20772;SDS011;10546;50.674;4.616;2023-04-16T09:08:03;39.13;;;17.23;;
20772;SDS011;10546;50.674;4.616;2023-04-16T09:10:30;41.20;;;17.90;;
20772;SDS011;10546;50.674;4.616;2023-04-16T09:12:56;40.87;;;18.33;;
20772;SDS011;10546;50.674;4.616;2023-04-16T09:15:22;40.60;;;18.20;;
20772;SDS011;10546;50.674;4.616;2023-04-16T09:17:49;39.70;;;16.93;;
20772;SDS011;10546;50.674;4.616;2023-04-16T09:20:17;37.63;;;17.87;;
20772;SDS011;10546;50.674;4.616;2023-04-16T09:22:43;34.33;;;16.33;;
20772;SDS011;10546;50.674;4.616;2023-04-16T09:25:09;43.37;;;18.67;;
20772;SDS011;10546;50.674;4.616;2023-04-16T09:27:35;36.83;;;18.67;;
20772;SDS011;10546;50.674;4.616;2023-04-16T09:30:23;34.13;;;17.57;;
20772;SDS011;10546;50.674;4.616;2023-04-16T09:32:49;37.47;;;18.17;;
20772;SDS011;10546;50.674;4.616;2023-04-16T09:35:16;40.00;;;18.83;;
20772;SDS011;10546;50.674;4.616;2023-04-16T09:37:43;38.10;;;18.87;;
20772;SDS011;10546;50.674;4.616;2023-04-16T09:40:22;39.77;;;18.30;;
20772;SDS011;10546;50.674;4.616;2023-04-16T09:42:50;41.17;;;19.43;;
20772;SDS011;10546;50.674;4.616;2023-04-16T09:45:17;43.27;;;20.27;;
20772;SDS011;10546;50.674;4.616;2023-04-16T09:47:44;43.90;;;20.57;;
20772;SDS011;10546;50.674;4.616;2023-04-16T09:50:14;52.63;;;21.40;;
20772;SDS011;10546;50.674;4.616;2023-04-16T09:52:42;48.63;;;23.33;;
20772;SDS011;10546;50.674;4.616;2023-04-16T09:55:09;48.23;;;21.83;;
20772;SDS011;10546;50.674;4.616;2023-04-16T09:57:36;49.20;;;20.80;;
20772;SDS011;10546;50.674;4.616;2023-04-16T10:00:03;49.50;;;21.23;;
20772;SDS011;10546;50.674;4.616;2023-04-16T10:02:31;42.13;;;20.47;;
20772;SDS011;10546;50.674;4.616;2023-04-16T10:04:59;44.67;;;21.07;;
20772;SDS011;10546;50.674;4.616;2023-04-16T10:07:27;43.17;;;19.27;;
20772;SDS011;10546;50.674;4.616;2023-04-16T10:09:53;44.87;;;20.63;;
20772;SDS011;10546;50.674;4.616;2023-04-16T10:12:20;51.38;;;24.42;;
20772;SDS011;10546;50.674;4.616;2023-04-16T10:14:50;42.17;;;19.23;;
20772;SDS011;10546;50.674;4.616;2023-04-16T10:17:17;45.10;;;20.97;;
20772;SDS011;10546;50.674;4.616;2023-04-16T10:19:44;35.10;;;19.40;;
20772;SDS011;10546;50.674;4.616;2023-04-16T10:22:11;43.10;;;20.57;;
20772;SDS011;10546;50.674;4.616;2023-04-16T10:24:37;46.37;;;20.73;;
20772;SDS011;10546;50.674;4.616;2023-04-16T10:27:04;42.77;;;21.43;;
20772;SDS011;10546;50.674;4.616;2023-04-16T10:29:30;45.50;;;20.57;;
20772;SDS011;10546;50.674;4.616;2023-04-16T10:31:59;49.60;;;24.57;;
20772;SDS011;10546;50.674;4.616;2023-04-16T10:34:28;42.83;;;20.50;;
20772;SDS011;10546;50.674;4.616;2023-04-16T10:36:58;38.90;;;21.27;;
20772;SDS011;10546;50.674;4.616;2023-04-16T10:39:26;44.23;;;21.47;;
20772;SDS011;10546;50.674;4.616;2023-04-16T10:42:07;53.30;;;21.80;;
20772;SDS011;10546;50.674;4.616;2023-04-16T10:44:36;38.10;;;18.47;;
20772;SDS011;10546;50.674;4.616;2023-04-16T10:47:10;50.03;;;22.90;;
20772;SDS011;10546;50.674;4.616;2023-04-16T10:49:38;52.23;;;23.23;;
20772;SDS011;10546;50.674;4.616;2023-04-16T10:52:09;47.13;;;22.57;;
20772;SDS011;10546;50.674;4.616;2023-04-16T10:54:47;46.97;;;22.03;;
20772;SDS011;10546;50.674;4.616;2023-04-16T10:57:18;56.53;;;23.83;;
20772;SDS011;10546;50.674;4.616;2023-04-16T10:59:47;56.17;;;24.80;;
20772;SDS011;10546;50.674;4.616;2023-04-16T11:02:15;58.07;;;28.00;;
20772;SDS011;10546;50.674;4.616;2023-04-16T11:04:45;56.90;;;29.77;;
20772;SDS011;10546;50.674;4.616;2023-04-16T11:07:20;66.47;;;30.53;;
20772;SDS011;10546;50.674;4.616;2023-04-16T11:09:57;64.20;;;31.43;;
20772;SDS011;10546;50.674;4.616;2023-04-16T11:15:07;72.97;;;30.20;;
20772;SDS011;10546;50.674;4.616;2023-04-16T11:20:04;56.67;;;25.87;;
20772;SDS011;10546;50.674;4.616;2023-04-16T11:22:33;58.53;;;26.83;;
20772;SDS011;10546;50.674;4.616;2023-04-16T11:25:03;75.90;;;31.37;;
20772;SDS011;10546;50.674;4.616;2023-04-16T11:27:31;60.17;;;26.47;;
20772;SDS011;10546;50.674;4.616;2023-04-16T11:30:03;70.33;;;28.30;;
20772;SDS011;10546;50.674;4.616;2023-04-16T11:32:37;47.70;;;24.13;;
20772;SDS011;10546;50.674;4.616;2023-04-16T11:35:11;60.00;;;26.63;;
20772;SDS011;10546;50.674;4.616;2023-04-16T11:37:41;54.53;;;24.50;;
20772;SDS011;10546;50.674;4.616;2023-04-16T11:40:10;50.13;;;25.20;;
20772;SDS011;10546;50.674;4.616;2023-04-16T11:42:43;51.87;;;23.90;;
20772;SDS011;10546;50.674;4.616;2023-04-16T11:45:10;55.70;;;25.10;;
20772;SDS011;10546;50.674;4.616;2023-04-16T11:52:51;40.90;;;21.50;;
20772;SDS011;10546;50.674;4.616;2023-04-16T11:55:19;42.23;;;21.83;;
20772;SDS011;10546;50.674;4.616;2023-04-16T11:57:47;43.97;;;22.53;;
20772;SDS011;10546;50.674;4.616;2023-04-16T12:00:13;48.43;;;21.80;;
20772;SDS011;10546;50.674;4.616;2023-04-16T12:02:40;47.27;;;22.20;;
20772;SDS011;10546;50.674;4.616;2023-04-16T12:07:59;47.40;;;20.67;;
20772;SDS011;10546;50.674;4.616;2023-04-16T12:10:26;57.43;;;26.67;;
20772;SDS011;10546;50.674;4.616;2023-04-16T12:12:51;44.70;;;22.37;;
20772;SDS011;10546;50.674;4.616;2023-04-16T12:15:17;71.80;;;30.17;;
20772;SDS011;10546;50.674;4.616;2023-04-16T12:17:43;52.30;;;22.33;;
20772;SDS011;10546;50.674;4.616;2023-04-16T12:22:36;56.70;;;25.60;;
20772;SDS011;10546;50.674;4.616;2023-04-16T12:25:15;44.47;;;22.27;;
20772;SDS011;10546;50.674;4.616;2023-04-16T12:27:45;50.77;;;25.47;;
20772;SDS011;10546;50.674;4.616;2023-04-16T12:30:12;43.70;;;21.53;;
20772;SDS011;10546;50.674;4.616;2023-04-16T12:32:42;56.90;;;24.63;;
20772;SDS011;10546;50.674;4.616;2023-04-16T12:35:10;52.70;;;24.20;;
20772;SDS011;10546;50.674;4.616;2023-04-16T12:37:36;58.17;;;24.80;;
20772;SDS011;10546;50.674;4.616;2023-04-16T12:40:02;51.50;;;24.17;;
20772;SDS011;10546;50.674;4.616;2023-04-16T12:42:29;57.40;;;24.93;;
20772;SDS011;10546;50.674;4.616;2023-04-16T12:45:00;51.27;;;23.60;;
20772;SDS011;10546;50.674;4.616;2023-04-16T12:47:27;49.20;;;22.83;;
20772;SDS011;10546;50.674;4.616;2023-04-16T12:49:54;53.47;;;23.53;;
20772;SDS011;10546;50.674;4.616;2023-04-16T12:52:20;50.80;;;23.07;;
20772;SDS011;10546;50.674;4.616;2023-04-16T12:54:46;54.93;;;23.90;;
20772;SDS011;10546;50.674;4.616;2023-04-16T12:57:12;54.40;;;23.10;;
20772;SDS011;10546;50.674;4.616;2023-04-16T12:59:37;57.37;;;23.40;;
20772;SDS011;10546;50.674;4.616;2023-04-16T13:02:03;50.33;;;22.23;;
20772;SDS011;10546;50.674;4.616;2023-04-16T13:04:29;53.03;;;25.80;;
20772;SDS011;10546;50.674;4.616;2023-04-16T13:06:54;46.50;;;23.83;;
20772;SDS011;10546;50.674;4.616;2023-04-16T13:09:20;51.13;;;24.13;;
20772;SDS011;10546;50.674;4.616;2023-04-16T13:11:46;53.27;;;24.73;;
20772;SDS011;10546;50.674;4.616;2023-04-16T13:14:11;48.87;;;23.90;;
20772;SDS011;10546;50.674;4.616;2023-04-16T13:16:37;54.40;;;24.20;;
20772;SDS011;10546;50.674;4.616;2023-04-16T13:19:03;49.40;;;24.10;;
20772;SDS011;10546;50.674;4.616;2023-04-16T13:21:29;53.77;;;24.30;;
20772;SDS011;10546;50.674;4.616;2023-04-16T13:23:55;44.00;;;23.00;;
20772;SDS011;10546;50.674;4.616;2023-04-16T13:26:21;48.80;;;24.10;;
20772;SDS011;10546;50.674;4.616;2023-04-16T13:28:46;47.27;;;23.83;;
20772;SDS011;10546;50.674;4.616;2023-04-16T13:31:12;58.10;;;26.30;;
20772;SDS011;10546;50.674;4.616;2023-04-16T13:33:40;53.70;;;26.27;;
20772;SDS011;10546;50.674;4.616;2023-04-16T13:36:06;55.43;;;25.43;;
20772;SDS011;10546;50.674;4.616;2023-04-16T13:38:32;46.40;;;25.33;;
20772;SDS011;10546;50.674;4.616;2023-04-16T13:40:57;56.83;;;25.67;;
20772;SDS011;10546;50.674;4.616;2023-04-16T13:43:23;42.13;;;21.10;;
20772;SDS011;10546;50.674;4.616;2023-04-16T13:45:48;53.50;;;25.33;;
20772;SDS011;10546;50.674;4.616;2023-04-16T13:48:14;57.00;;;26.07;;
20772;SDS011;10546;50.674;4.616;2023-04-16T13:50:41;53.63;;;27.90;;
20772;SDS011;10546;50.674;4.616;2023-04-16T13:53:07;57.93;;;27.67;;
20772;SDS011;10546;50.674;4.616;2023-04-16T13:55:33;48.40;;;27.20;;
20772;SDS011;10546;50.674;4.616;2023-04-16T13:57:59;52.03;;;25.27;;
20772;SDS011;10546;50.674;4.616;2023-04-16T14:00:25;48.37;;;24.50;;
20772;SDS011;10546;50.674;4.616;2023-04-16T14:02:51;49.47;;;26.17;;
20772;SDS011;10546;50.674;4.616;2023-04-16T14:05:17;52.17;;;26.17;;
20772;SDS011;10546;50.674;4.616;2023-04-16T14:07:43;55.70;;;26.73;;
20772;SDS011;10546;50.674;4.616;2023-04-16T14:10:10;47.73;;;26.43;;
20772;SDS011;10546;50.674;4.616;2023-04-16T14:12:36;49.43;;;23.87;;
20772;SDS011;10546;50.674;4.616;2023-04-16T14:15:03;53.43;;;25.80;;
20772;SDS011;10546;50.674;4.616;2023-04-16T14:17:30;47.70;;;28.40;;
20772;SDS011;10546;50.674;4.616;2023-04-16T14:19:56;46.57;;;25.33;;
20772;SDS011;10546;50.674;4.616;2023-04-16T14:22:21;44.60;;;26.07;;
20772;SDS011;10546;50.674;4.616;2023-04-16T14:24:47;58.90;;;27.20;;
20772;SDS011;10546;50.674;4.616;2023-04-16T14:27:12;49.37;;;24.30;;
20772;SDS011;10546;50.674;4.616;2023-04-16T14:29:38;59.43;;;27.73;;
20772;SDS011;10546;50.674;4.616;2023-04-16T14:32:04;53.93;;;28.57;;
20772;SDS011;10546;50.674;4.616;2023-04-16T14:34:30;59.33;;;26.53;;
20772;SDS011;10546;50.674;4.616;2023-04-16T14:36:56;62.87;;;28.07;;
20772;SDS011;10546;50.674;4.616;2023-04-16T14:39:21;59.57;;;27.83;;
20772;SDS011;10546;50.674;4.616;2023-04-16T14:41:47;56.93;;;29.20;;
20772;SDS011;10546;50.674;4.616;2023-04-16T14:44:13;51.93;;;28.00;;
20772;SDS011;10546;50.674;4.616;2023-04-16T14:46:39;62.97;;;27.93;;
20772;SDS011;10546;50.674;4.616;2023-04-16T14:49:05;51.30;;;27.30;;
20772;SDS011;10546;50.674;4.616;2023-04-16T14:51:31;60.50;;;27.17;;
20772;SDS011;10546;50.674;4.616;2023-04-16T14:53:57;52.93;;;27.00;;
20772;SDS011;10546;50.674;4.616;2023-04-16T14:56:23;55.57;;;28.23;;
20772;SDS011;10546;50.674;4.616;2023-04-16T14:58:49;56.53;;;28.13;;
20772;SDS011;10546;50.674;4.616;2023-04-16T15:01:14;59.50;;;27.30;;
20772;SDS011;10546;50.674;4.616;2023-04-16T15:03:40;55.67;;;26.73;;
20772;SDS011;10546;50.674;4.616;2023-04-16T15:06:07;63.67;;;31.00;;
20772;SDS011;10546;50.674;4.616;2023-04-16T15:08:33;62.83;;;33.20;;
20772;SDS011;10546;50.674;4.616;2023-04-16T15:10:58;56.60;;;29.20;;
20772;SDS011;10546;50.674;4.616;2023-04-16T15:13:24;55.20;;;28.60;;
20772;SDS011;10546;50.674;4.616;2023-04-16T15:15:57;61.27;;;28.07;;
20772;SDS011;10546;50.674;4.616;2023-04-16T15:18:26;68.73;;;34.53;;
20772;SDS011;10546;50.674;4.616;2023-04-16T15:20:53;63.23;;;30.30;;
20772;SDS011;10546;50.674;4.616;2023-04-16T15:23:19;55.97;;;28.20;;
20772;SDS011;10546;50.674;4.616;2023-04-16T15:25:45;56.13;;;28.17;;
20772;SDS011;10546;50.674;4.616;2023-04-16T15:28:11;55.37;;;29.87;;
20772;SDS011;10546;50.674;4.616;2023-04-16T15:30:40;51.07;;;27.30;;
20772;SDS011;10546;50.674;4.616;2023-04-16T15:33:06;50.50;;;27.43;;
20772;SDS011;10546;50.674;4.616;2023-04-16T15:35:33;49.67;;;27.10;;
20772;SDS011;10546;50.674;4.616;2023-04-16T15:37:59;50.17;;;25.83;;
20772;SDS011;10546;50.674;4.616;2023-04-16T15:40:25;48.83;;;25.37;;
20772;SDS011;10546;50.674;4.616;2023-04-16T15:42:51;44.63;;;24.37;;
20772;SDS011;10546;50.674;4.616;2023-04-16T15:45:16;47.33;;;25.50;;
20772;SDS011;10546;50.674;4.616;2023-04-16T15:47:42;44.53;;;24.50;;
20772;SDS011;10546;50.674;4.616;2023-04-16T15:50:11;40.53;;;23.23;;
20772;SDS011;10546;50.674;4.616;2023-04-16T15:52:37;47.10;;;25.03;;
20772;SDS011;10546;50.674;4.616;2023-04-16T15:55:03;45.97;;;27.67;;
20772;SDS011;10546;50.674;4.616;2023-04-16T15:57:30;49.97;;;26.57;;
20772;SDS011;10546;50.674;4.616;2023-04-16T15:59:55;54.73;;;28.30;;
20772;SDS011;10546;50.674;4.616;2023-04-16T16:02:21;58.83;;;28.60;;
20772;SDS011;10546;50.674;4.616;2023-04-16T16:04:47;51.80;;;28.10;;
20772;SDS011;10546;50.674;4.616;2023-04-16T16:07:13;53.23;;;28.47;;
20772;SDS011;10546;50.674;4.616;2023-04-16T16:09:42;47.60;;;25.00;;
20772;SDS011;10546;50.674;4.616;2023-04-16T16:12:07;49.03;;;25.57;;
20772;SDS011;10546;50.674;4.616;2023-04-16T16:14:33;42.90;;;23.70;;
20772;SDS011;10546;50.674;4.616;2023-04-16T16:16:59;48.70;;;25.70;;
20772;SDS011;10546;50.674;4.616;2023-04-16T16:19:24;44.87;;;24.23;;
20772;SDS011;10546;50.674;4.616;2023-04-16T16:21:51;39.23;;;23.37;;
20772;SDS011;10546;50.674;4.616;2023-04-16T16:24:16;43.73;;;22.20;;
20772;SDS011;10546;50.674;4.616;2023-04-16T16:26:42;41.70;;;24.07;;
20772;SDS011;10546;50.674;4.616;2023-04-16T16:29:07;40.60;;;22.53;;
20772;SDS011;10546;50.674;4.616;2023-04-16T16:31:33;38.20;;;21.87;;
20772;SDS011;10546;50.674;4.616;2023-04-16T16:33:59;37.93;;;22.50;;
20772;SDS011;10546;50.674;4.616;2023-04-16T16:36:25;34.93;;;21.47;;
20772;SDS011;10546;50.674;4.616;2023-04-16T16:38:51;39.33;;;22.77;;
20772;SDS011;10546;50.674;4.616;2023-04-16T16:41:16;34.50;;;21.47;;
20772;SDS011;10546;50.674;4.616;2023-04-16T16:43:42;39.33;;;22.03;;
20772;SDS011;10546;50.674;4.616;2023-04-16T16:46:08;42.10;;;22.57;;
20772;SDS011;10546;50.674;4.616;2023-04-16T16:48:34;43.47;;;22.07;;
20772;SDS011;10546;50.674;4.616;2023-04-16T16:50:59;33.00;;;21.27;;
20772;SDS011;10546;50.674;4.616;2023-04-16T16:53:25;37.40;;;22.17;;
20772;SDS011;10546;50.674;4.616;2023-04-16T16:55:51;40.03;;;21.37;;
20772;SDS011;10546;50.674;4.616;2023-04-16T16:58:17;38.63;;;21.53;;
20772;SDS011;10546;50.674;4.616;2023-04-16T17:00:43;33.53;;;20.73;;
20772;SDS011;10546;50.674;4.616;2023-04-16T17:03:09;34.03;;;21.37;;
20772;SDS011;10546;50.674;4.616;2023-04-16T17:05:35;35.80;;;22.40;;
20772;SDS011;10546;50.674;4.616;2023-04-16T17:08:01;39.03;;;21.73;;
20772;SDS011;10546;50.674;4.616;2023-04-16T17:10:26;39.27;;;22.00;;
20772;SDS011;10546;50.674;4.616;2023-04-16T17:12:52;39.30;;;21.70;;
20772;SDS011;10546;50.674;4.616;2023-04-16T17:15:17;37.70;;;22.10;;
20772;SDS011;10546;50.674;4.616;2023-04-16T17:17:43;36.63;;;22.37;;
20772;SDS011;10546;50.674;4.616;2023-04-16T17:20:09;39.47;;;23.00;;
20772;SDS011;10546;50.674;4.616;2023-04-16T17:22:36;38.60;;;22.80;;
20772;SDS011;10546;50.674;4.616;2023-04-16T17:25:03;40.70;;;24.97;;
20772;SDS011;10546;50.674;4.616;2023-04-16T17:27:29;44.80;;;23.13;;
20772;SDS011;10546;50.674;4.616;2023-04-16T17:29:58;43.77;;;24.03;;
20772;SDS011;10546;50.674;4.616;2023-04-16T17:32:29;43.43;;;25.37;;
20772;SDS011;10546;50.674;4.616;2023-04-16T17:34:58;45.50;;;26.67;;
20772;SDS011;10546;50.674;4.616;2023-04-16T17:37:24;46.27;;;26.50;;
20772;SDS011;10546;50.674;4.616;2023-04-16T17:39:51;44.00;;;26.20;;
20772;SDS011;10546;50.674;4.616;2023-04-16T17:42:16;47.03;;;26.40;;
20772;SDS011;10546;50.674;4.616;2023-04-16T17:44:42;45.93;;;25.93;;
20772;SDS011;10546;50.674;4.616;2023-04-16T17:47:08;42.97;;;24.97;;
20772;SDS011;10546;50.674;4.616;2023-04-16T17:49:33;46.30;;;25.17;;
20772;SDS011;10546;50.674;4.616;2023-04-16T17:51:59;50.07;;;26.43;;
20772;SDS011;10546;50.674;4.616;2023-04-16T17:54:25;45.93;;;25.37;;
20772;SDS011;10546;50.674;4.616;2023-04-16T17:56:50;44.80;;;26.37;;
20772;SDS011;10546;50.674;4.616;2023-04-16T17:59:16;46.53;;;26.47;;
20772;SDS011;10546;50.674;4.616;2023-04-16T18:01:42;49.07;;;26.80;;
20772;SDS011;10546;50.674;4.616;2023-04-16T18:04:08;49.13;;;27.23;;
20772;SDS011;10546;50.674;4.616;2023-04-16T18:06:34;51.97;;;28.57;;
20772;SDS011;10546;50.674;4.616;2023-04-16T18:09:00;57.80;;;29.57;;
20772;SDS011;10546;50.674;4.616;2023-04-16T18:11:25;50.77;;;28.73;;
20772;SDS011;10546;50.674;4.616;2023-04-16T18:13:51;54.00;;;28.40;;
20772;SDS011;10546;50.674;4.616;2023-04-16T18:16:17;50.70;;;29.37;;
20772;SDS011;10546;50.674;4.616;2023-04-16T18:18:44;56.70;;;29.17;;
20772;SDS011;10546;50.674;4.616;2023-04-16T18:21:10;50.67;;;28.77;;
20772;SDS011;10546;50.674;4.616;2023-04-16T18:23:36;51.07;;;28.83;;
20772;SDS011;10546;50.674;4.616;2023-04-16T18:26:01;46.93;;;28.97;;
20772;SDS011;10546;50.674;4.616;2023-04-16T18:28:27;52.60;;;30.30;;
20772;SDS011;10546;50.674;4.616;2023-04-16T18:30:53;53.13;;;30.53;;
20772;SDS011;10546;50.674;4.616;2023-04-16T18:33:19;53.73;;;29.57;;
20772;SDS011;10546;50.674;4.616;2023-04-16T18:35:45;49.77;;;29.30;;
20772;SDS011;10546;50.674;4.616;2023-04-16T18:38:11;47.00;;;28.30;;
20772;SDS011;10546;50.674;4.616;2023-04-16T18:40:37;52.07;;;28.90;;
20772;SDS011;10546;50.674;4.616;2023-04-16T18:43:04;58.17;;;29.03;;
20772;SDS011;10546;50.674;4.616;2023-04-16T18:45:30;55.37;;;28.90;;
20772;SDS011;10546;50.674;4.616;2023-04-16T18:47:56;52.37;;;28.80;;
20772;SDS011;10546;50.674;4.616;2023-04-16T18:50:26;55.80;;;29.73;;
20772;SDS011;10546;50.674;4.616;2023-04-16T18:52:52;56.43;;;29.97;;
20772;SDS011;10546;50.674;4.616;2023-04-16T18:55:17;60.23;;;30.63;;
20772;SDS011;10546;50.674;4.616;2023-04-16T18:57:43;50.07;;;28.87;;
20772;SDS011;10546;50.674;4.616;2023-04-16T19:00:09;51.67;;;29.37;;
20772;SDS011;10546;50.674;4.616;2023-04-16T19:02:39;51.60;;;29.17;;
20772;SDS011;10546;50.674;4.616;2023-04-16T19:05:06;52.60;;;28.87;;
20772;SDS011;10546;50.674;4.616;2023-04-16T19:07:33;50.13;;;28.47;;
20772;SDS011;10546;50.674;4.616;2023-04-16T19:09:59;56.23;;;29.40;;
20772;SDS011;10546;50.674;4.616;2023-04-16T19:12:26;52.87;;;29.53;;
20772;SDS011;10546;50.674;4.616;2023-04-16T19:14:52;52.70;;;28.20;;
20772;SDS011;10546;50.674;4.616;2023-04-16T19:17:17;50.40;;;28.63;;
20772;SDS011;10546;50.674;4.616;2023-04-16T19:19:43;55.30;;;28.67;;
20772;SDS011;10546;50.674;4.616;2023-04-16T19:22:09;57.53;;;31.20;;
20772;SDS011;10546;50.674;4.616;2023-04-16T19:24:34;50.33;;;28.90;;
20772;SDS011;10546;50.674;4.616;2023-04-16T19:27:00;46.50;;;26.53;;
20772;SDS011;10546;50.674;4.616;2023-04-16T19:29:26;48.43;;;27.43;;
20772;SDS011;10546;50.674;4.616;2023-04-16T19:31:52;47.50;;;26.27;;
20772;SDS011;10546;50.674;4.616;2023-04-16T19:34:17;50.50;;;26.80;;
20772;SDS011;10546;50.674;4.616;2023-04-16T19:36:43;48.47;;;27.70;;
20772;SDS011;10546;50.674;4.616;2023-04-16T19:39:09;51.17;;;28.50;;
20772;SDS011;10546;50.674;4.616;2023-04-16T19:41:35;55.03;;;28.37;;
20772;SDS011;10546;50.674;4.616;2023-04-16T19:44:01;55.90;;;29.40;;
20772;SDS011;10546;50.674;4.616;2023-04-16T19:46:27;58.20;;;29.33;;
20772;SDS011;10546;50.674;4.616;2023-04-16T19:48:52;55.47;;;29.73;;
20772;SDS011;10546;50.674;4.616;2023-04-16T19:51:18;53.13;;;29.33;;
20772;SDS011;10546;50.674;4.616;2023-04-16T19:53:43;57.33;;;30.60;;
20772;SDS011;10546;50.674;4.616;2023-04-16T19:56:09;57.67;;;29.43;;
20772;SDS011;10546;50.674;4.616;2023-04-16T19:58:35;56.27;;;30.07;;
20772;SDS011;10546;50.674;4.616;2023-04-16T20:01:00;52.83;;;30.13;;
20772;SDS011;10546;50.674;4.616;2023-04-16T20:03:31;59.27;;;31.23;;
20772;SDS011;10546;50.674;4.616;2023-04-16T20:05:57;56.93;;;31.60;;
20772;SDS011;10546;50.674;4.616;2023-04-16T20:08:22;62.20;;;32.17;;
20772;SDS011;10546;50.674;4.616;2023-04-16T20:10:51;59.53;;;32.33;;
20772;SDS011;10546;50.674;4.616;2023-04-16T20:13:19;61.20;;;34.90;;
20772;SDS011;10546;50.674;4.616;2023-04-16T20:15:51;65.23;;;36.77;;
20772;SDS011;10546;50.674;4.616;2023-04-16T20:18:17;62.53;;;34.93;;
20772;SDS011;10546;50.674;4.616;2023-04-16T20:20:44;62.60;;;34.30;;
20772;SDS011;10546;50.674;4.616;2023-04-16T20:23:13;64.73;;;33.33;;
20772;SDS011;10546;50.674;4.616;2023-04-16T20:25:40;58.50;;;32.60;;
20772;SDS011;10546;50.674;4.616;2023-04-16T20:28:07;61.63;;;31.67;;
20772;SDS011;10546;50.674;4.616;2023-04-16T20:30:34;58.27;;;31.90;;
20772;SDS011;10546;50.674;4.616;2023-04-16T20:33:09;59.50;;;30.17;;
20772;SDS011;10546;50.674;4.616;2023-04-16T20:35:35;55.00;;;30.23;;
20772;SDS011;10546;50.674;4.616;2023-04-16T20:38:00;54.40;;;28.80;;
20772;SDS011;10546;50.674;4.616;2023-04-16T20:40:26;51.47;;;29.23;;
20772;SDS011;10546;50.674;4.616;2023-04-16T20:42:55;54.77;;;28.13;;
20772;SDS011;10546;50.674;4.616;2023-04-16T20:45:25;48.23;;;27.50;;
20772;SDS011;10546;50.674;4.616;2023-04-16T20:47:56;51.80;;;27.93;;
20772;SDS011;10546;50.674;4.616;2023-04-16T20:50:24;50.90;;;27.33;;
20772;SDS011;10546;50.674;4.616;2023-04-16T20:52:50;54.20;;;29.33;;
20772;SDS011;10546;50.674;4.616;2023-04-16T20:55:15;52.43;;;29.63;;
20772;SDS011;10546;50.674;4.616;2023-04-16T20:57:41;53.87;;;30.43;;
20772;SDS011;10546;50.674;4.616;2023-04-16T21:00:07;58.67;;;29.90;;
20772;SDS011;10546;50.674;4.616;2023-04-16T21:02:36;57.33;;;29.80;;
20772;SDS011;10546;50.674;4.616;2023-04-16T21:05:02;57.03;;;30.93;;
20772;SDS011;10546;50.674;4.616;2023-04-16T21:07:29;54.77;;;29.77;;
20772;SDS011;10546;50.674;4.616;2023-04-16T21:09:55;54.23;;;28.07;;
20772;SDS011;10546;50.674;4.616;2023-04-16T21:12:20;51.10;;;27.63;;
20772;SDS011;10546;50.674;4.616;2023-04-16T21:14:46;51.87;;;26.77;;
20772;SDS011;10546;50.674;4.616;2023-04-16T21:17:11;49.80;;;27.40;;
20772;SDS011;10546;50.674;4.616;2023-04-16T21:19:37;47.13;;;26.03;;
20772;SDS011;10546;50.674;4.616;2023-04-16T21:22:04;50.67;;;26.17;;
20772;SDS011;10546;50.674;4.616;2023-04-16T21:24:30;49.07;;;27.53;;
20772;SDS011;10546;50.674;4.616;2023-04-16T21:26:56;49.63;;;26.87;;
20772;SDS011;10546;50.674;4.616;2023-04-16T21:29:21;51.37;;;26.60;;
20772;SDS011;10546;50.674;4.616;2023-04-16T21:31:47;55.47;;;27.90;;
20772;SDS011;10546;50.674;4.616;2023-04-16T21:34:13;46.67;;;26.47;;
20772;SDS011;10546;50.674;4.616;2023-04-16T21:36:38;49.13;;;26.67;;
20772;SDS011;10546;50.674;4.616;2023-04-16T21:39:04;50.13;;;27.43;;
20772;SDS011;10546;50.674;4.616;2023-04-16T21:41:29;47.73;;;26.50;;
20772;SDS011;10546;50.674;4.616;2023-04-16T21:43:55;47.93;;;26.30;;
20772;SDS011;10546;50.674;4.616;2023-04-16T21:46:21;47.67;;;26.83;;
20772;SDS011;10546;50.674;4.616;2023-04-16T21:48:46;52.67;;;27.90;;
20772;SDS011;10546;50.674;4.616;2023-04-16T21:51:13;44.37;;;24.40;;
20772;SDS011;10546;50.674;4.616;2023-04-16T21:53:39;47.07;;;25.37;;
20772;SDS011;10546;50.674;4.616;2023-04-16T21:56:05;47.27;;;26.07;;
20772;SDS011;10546;50.674;4.616;2023-04-16T21:58:31;47.23;;;26.07;;
20772;SDS011;10546;50.674;4.616;2023-04-16T22:00:56;46.83;;;26.50;;
20772;SDS011;10546;50.674;4.616;2023-04-16T22:03:22;47.97;;;26.57;;
20772;SDS011;10546;50.674;4.616;2023-04-16T22:06:00;52.23;;;26.00;;
20772;SDS011;10546;50.674;4.616;2023-04-16T22:08:27;47.20;;;25.73;;
20772;SDS011;10546;50.674;4.616;2023-04-16T22:10:59;53.43;;;25.30;;
20772;SDS011;10546;50.674;4.616;2023-04-16T22:13:27;49.87;;;25.87;;
20772;SDS011;10546;50.674;4.616;2023-04-16T22:15:56;52.97;;;25.83;;
20772;SDS011;10546;50.674;4.616;2023-04-16T22:18:25;48.10;;;26.53;;
20772;SDS011;10546;50.674;4.616;2023-04-16T22:20:51;54.83;;;25.60;;
20772;SDS011;10546;50.674;4.616;2023-04-16T22:23:19;51.10;;;26.83;;
20772;SDS011;10546;50.674;4.616;2023-04-16T22:25:48;47.30;;;25.27;;
20772;SDS011;10546;50.674;4.616;2023-04-16T22:28:13;52.10;;;25.77;;
20772;SDS011;10546;50.674;4.616;2023-04-16T22:33:15;49.50;;;25.40;;